createdAt,value
2023-01-09T00:02:33.963Z,8.04
2023-01-09T00:06:37.351Z,8.09
2023-01-09T00:10:40.175Z,8.17
2023-01-09T00:14:44.193Z,8.19
2023-01-09T00:18:48.290Z,8.20
2023-01-09T00:22:51.031Z,8.20
2023-01-09T00:26:53.732Z,8.24
2023-01-09T00:30:57.440Z,8.17
2023-01-09T00:35:01.612Z,8.17
2023-01-09T00:39:04.877Z,8.19
2023-01-09T00:43:07.680Z,8.20
2023-01-09T00:47:15.879Z,8.25
2023-01-09T00:51:21.332Z,8.30
2023-01-09T00:55:24.481Z,8.34
2023-01-09T00:59:28.771Z,8.32
2023-01-09T01:03:31.520Z,8.27
2023-01-09T01:07:41.442Z,8.25
2023-01-09T01:11:44.178Z,8.25
2023-01-09T01:15:47.855Z,8.20
2023-01-09T01:19:50.588Z,8.18
2023-01-09T01:23:54.711Z,8.18
2023-01-09T01:27:57.496Z,8.14
2023-01-09T01:32:00.239Z,8.15
2023-01-09T01:36:04.774Z,8.11
2023-01-09T01:40:12.507Z,8.12
2023-01-09T01:44:52.630Z,8.09
2023-01-09T01:48:58.768Z,8.06
2023-01-09T01:53:08.318Z,8.09
2023-01-09T01:57:13.138Z,8.08
2023-01-09T02:01:16.567Z,8.08
2023-01-09T02:05:20.366Z,8.04
2023-01-09T02:09:25.249Z,8.01
2023-01-09T02:13:30.241Z,7.96
2023-01-09T02:18:10.231Z,7.89
2023-01-09T02:22:22.972Z,7.82
2023-01-09T02:26:38.958Z,7.78
2023-01-09T02:30:47.568Z,7.72
2023-01-09T02:35:00.006Z,7.70
2023-01-09T02:39:16.987Z,7.64
2023-01-09T02:43:20.620Z,7.59
2023-01-09T02:47:42.943Z,7.53
2023-01-09T02:51:52.889Z,7.47
2023-01-09T02:56:06.136Z,7.43
2023-01-09T03:00:17.514Z,7.35
2023-01-09T03:04:31.468Z,7.25
2023-01-09T03:08:40.031Z,7.16
2023-01-09T03:12:44.567Z,7.08
2023-01-09T03:16:52.089Z,7.01
2023-01-09T03:20:56.667Z,6.93
2023-01-09T03:24:59.446Z,6.89
2023-01-09T03:29:02.481Z,6.82
2023-01-09T03:33:05.281Z,6.75
2023-01-09T03:37:09.347Z,6.68
2023-01-09T03:41:12.189Z,6.58
2023-01-09T03:45:15.170Z,6.53
2023-01-09T03:49:19.066Z,6.44
2023-01-09T03:53:24.723Z,6.39
2023-01-09T03:57:27.456Z,6.32
2023-01-09T04:01:30.267Z,6.24
2023-01-09T04:05:33.085Z,6.22
2023-01-09T04:09:37.149Z,6.17
2023-01-09T04:13:39.943Z,6.18
2023-01-09T04:17:42.768Z,6.12
2023-01-09T04:21:45.520Z,6.11
2023-01-09T04:25:49.646Z,6.14
2023-01-09T04:29:52.390Z,6.15
2023-01-09T04:33:55.161Z,6.13
2023-01-09T04:37:57.881Z,6.09
2023-01-09T04:42:02.047Z,6.11
2023-01-09T04:46:04.846Z,6.10
2023-01-09T04:50:08.182Z,6.09
2023-01-09T04:54:11.391Z,6.09
2023-01-09T04:58:15.502Z,6.07
2023-01-09T05:02:18.293Z,5.99
2023-01-09T05:06:20.995Z,5.97
2023-01-09T05:10:23.738Z,5.93
2023-01-09T05:14:27.860Z,5.91
2023-01-09T05:18:30.776Z,5.88
2023-01-09T05:22:33.580Z,5.83
2023-01-09T05:26:36.348Z,5.77
2023-01-09T05:30:40.534Z,5.73
2023-01-09T05:34:43.292Z,5.67
2023-01-09T05:38:46.051Z,5.68
2023-01-09T05:42:48.799Z,5.63
2023-01-09T05:46:52.914Z,5.64
2023-01-09T05:50:55.689Z,5.59
2023-01-09T05:54:58.408Z,5.52
2023-01-09T05:59:01.153Z,5.54
2023-01-09T06:03:05.445Z,5.57
2023-01-09T06:07:08.283Z,5.59
2023-01-09T06:11:10.997Z,5.59
2023-01-09T06:15:15.381Z,5.61
2023-01-09T06:19:19.511Z,5.72
2023-01-09T06:23:22.223Z,5.77
2023-01-09T06:27:24.918Z,5.76
2023-01-09T06:31:27.801Z,5.83
2023-01-09T06:35:31.829Z,5.89
2023-01-09T06:39:34.572Z,5.99
2023-01-09T06:43:37.330Z,6.02
2023-01-09T06:47:40.313Z,6.08
2023-01-09T06:51:44.505Z,6.08
2023-01-09T06:55:48.105Z,6.13
2023-01-09T06:59:50.904Z,6.19
2023-01-09T07:03:53.673Z,6.20
2023-01-09T07:07:57.902Z,6.26
2023-01-09T07:12:00.603Z,6.30
2023-01-09T07:16:05.383Z,6.32
2023-01-09T07:20:09.817Z,6.38
2023-01-09T07:24:13.901Z,6.40
2023-01-09T07:28:16.607Z,6.44
2023-01-09T07:32:19.337Z,6.49
2023-01-09T07:36:22.367Z,6.47
2023-01-09T07:40:26.998Z,6.52
2023-01-09T07:44:30.100Z,6.55
2023-01-09T07:48:32.872Z,6.60
2023-01-09T07:52:35.890Z,6.65
2023-01-09T07:56:40.522Z,6.61
2023-01-09T08:00:43.443Z,6.68
2023-01-09T08:04:47.015Z,6.73
2023-01-09T08:08:50.012Z,6.76
2023-01-09T08:12:54.460Z,6.78
2023-01-09T08:16:57.572Z,6.80
2023-01-09T08:21:00.773Z,6.78
2023-01-09T08:25:04.016Z,6.84
2023-01-09T08:29:08.221Z,6.86
2023-01-09T08:33:11.173Z,6.96
2023-01-09T08:37:14.067Z,6.97
2023-01-09T08:41:34.830Z,6.99
2023-01-09T08:45:56.934Z,7.03
2023-01-09T08:50:00.010Z,7.05
2023-01-09T08:54:02.934Z,7.02
2023-01-09T08:58:05.925Z,7.00
2023-01-09T09:02:10.445Z,7.01
2023-01-09T09:06:13.474Z,6.96
2023-01-09T09:10:17.283Z,7.01
2023-01-09T09:14:37.655Z,7.03
2023-01-09T09:18:43.183Z,7.04
2023-01-09T09:22:46.867Z,7.03
2023-01-09T09:26:50.555Z,7.08
2023-01-09T09:30:53.578Z,7.07
2023-01-09T09:34:57.914Z,7.03
2023-01-09T09:39:02.529Z,7.02
2023-01-09T09:44:12.788Z,7.00
2023-01-09T09:48:32.179Z,7.03
2023-01-09T09:52:44.900Z,7.02
2023-01-09T09:56:52.737Z,6.98
2023-01-09T10:00:56.915Z,7.00
2023-01-09T10:05:04.961Z,7.00
2023-01-09T10:09:17.894Z,7.00
2023-01-09T10:13:41.157Z,6.97
2023-01-09T10:17:56.649Z,7.01
2023-01-09T10:22:08.086Z,7.04
2023-01-09T10:26:21.933Z,7.09
2023-01-09T10:30:33.644Z,7.15
2023-01-09T10:34:50.871Z,7.18
2023-01-09T10:38:58.372Z,7.22
2023-01-09T10:43:08.165Z,7.25
2023-01-09T10:47:17.339Z,7.32
2023-01-09T10:51:25.335Z,7.43
2023-01-09T10:55:36.266Z,7.42
2023-01-09T10:59:41.648Z,7.40
2023-01-09T11:03:44.669Z,7.35
2023-01-09T11:07:52.330Z,7.35
2023-01-09T11:11:55.461Z,7.35
2023-01-09T11:16:09.055Z,7.36
2023-01-09T11:20:17.958Z,7.38
2023-01-09T11:24:30.877Z,7.41
2023-01-09T11:28:34.178Z,7.35
2023-01-09T11:32:39.676Z,7.34
2023-01-09T11:36:43.011Z,7.33
2023-01-09T11:40:50.069Z,7.35
2023-01-09T11:44:58.997Z,7.34
2023-01-09T11:49:05.463Z,7.38
2023-01-09T11:53:18.902Z,7.29
2023-01-09T11:57:23.555Z,7.15
2023-01-09T12:01:52.110Z,7.02
2023-01-09T12:06:04.410Z,6.93
2023-01-09T12:10:27.715Z,6.83
2023-01-09T12:14:46.907Z,6.78
2023-01-09T12:19:01.445Z,6.75
2023-01-09T12:23:21.541Z,6.75
2023-01-09T12:27:40.849Z,6.76
2023-01-09T12:31:59.186Z,6.76
2023-01-09T12:36:15.196Z,6.79
2023-01-09T12:40:37.067Z,6.82
2023-01-09T12:45:00.421Z,6.88
2023-01-09T12:49:31.389Z,6.98
2023-01-09T12:53:42.305Z,7.03
2023-01-09T12:57:51.457Z,7.12
2023-01-09T13:01:55.264Z,7.21
2023-01-09T13:05:59.474Z,7.25
2023-01-09T13:10:08.577Z,7.33
2023-01-09T13:14:18.867Z,7.42
2023-01-09T13:18:28.610Z,7.55
2023-01-09T13:22:31.527Z,7.68
2023-01-09T13:26:39.108Z,7.77
2023-01-09T13:31:09.371Z,7.80
2023-01-09T13:35:14.626Z,7.82
2023-01-09T13:39:24.425Z,7.82
2023-01-09T13:43:27.493Z,7.75
2023-01-09T13:47:32.800Z,7.73
2023-01-09T13:51:57.811Z,7.70
2023-01-09T13:56:07.124Z,7.68
2023-01-09T14:00:47.583Z,7.66
2023-01-09T14:04:52.067Z,7.65
2023-01-09T14:09:13.748Z,7.64
2023-01-09T14:13:19.637Z,7.65
2023-01-09T14:17:32.464Z,7.66
2023-01-09T14:21:52.117Z,7.69
2023-01-09T14:25:56.172Z,7.75
2023-01-09T14:30:28.054Z,7.76
2023-01-09T14:34:36.564Z,7.78
2023-01-09T14:38:44.831Z,7.81
2023-01-09T14:42:52.783Z,7.81
2023-01-09T14:46:57.294Z,7.83
2023-01-09T14:51:01.320Z,7.82
2023-01-09T14:55:18.586Z,7.80
2023-01-09T14:59:22.689Z,7.79
2023-01-09T15:03:30.468Z,7.76
2023-01-09T15:07:40.507Z,7.73
2023-01-09T15:11:45.527Z,7.69
2023-01-09T15:15:50.197Z,7.63
2023-01-09T15:19:53.804Z,7.59
2023-01-09T15:24:11.783Z,7.56
2023-01-09T15:28:25.973Z,7.58
2023-01-09T15:32:30.890Z,7.54
2023-01-09T15:36:38.606Z,7.50
2023-01-09T15:40:41.676Z,7.45
2023-01-09T15:44:49.814Z,7.44
2023-01-09T15:48:55.030Z,7.43
2023-01-09T15:52:58.858Z,7.43
2023-01-09T15:57:35.752Z,7.44
2023-01-09T16:01:41.613Z,7.42
2023-01-09T16:05:47.319Z,7.37
2023-01-09T16:09:52.903Z,7.33
2023-01-09T16:13:57.693Z,7.31
2023-01-09T16:18:19.139Z,7.27
2023-01-09T16:22:24.298Z,7.23
2023-01-09T16:26:28.475Z,7.20
2023-01-09T16:30:31.455Z,7.16
2023-01-09T16:34:37.180Z,7.08
2023-01-09T16:38:42.615Z,7.05
2023-01-09T16:43:01.883Z,6.99
2023-01-09T16:47:05.050Z,6.97
2023-01-09T16:51:15.455Z,6.91
2023-01-09T16:55:18.434Z,6.91
2023-01-09T16:59:24.556Z,6.91
2023-01-09T17:03:28.027Z,6.90
2023-01-09T17:07:34.434Z,6.93
2023-01-09T17:11:39.327Z,6.93
2023-01-09T17:15:42.287Z,6.93
2023-01-09T17:19:46.587Z,6.95
2023-01-09T17:24:12.082Z,6.93
2023-01-09T17:28:33.917Z,6.86
2023-01-09T17:32:36.883Z,6.80
2023-01-09T17:36:41.595Z,6.75
2023-01-09T17:40:46.953Z,6.75
2023-01-09T17:44:49.868Z,6.71
2023-01-09T17:48:54.140Z,6.68
2023-01-09T17:52:57.348Z,6.69
2023-01-09T17:57:02.864Z,6.63
2023-01-09T18:01:06.029Z,6.55
2023-01-09T18:05:09.556Z,6.52
2023-01-09T18:09:17.055Z,6.51
2023-01-09T18:13:21.503Z,6.48
2023-01-09T18:17:24.522Z,6.49
2023-01-09T18:21:29.435Z,6.45
2023-01-09T18:25:32.415Z,6.44
2023-01-09T18:29:37.089Z,6.39
2023-01-09T18:33:41.164Z,6.35
2023-01-09T18:37:44.212Z,6.33
2023-01-09T18:41:47.196Z,6.31
2023-01-09T18:45:55.023Z,6.31
2023-01-09T18:49:58.094Z,6.35
2023-01-09T18:54:01.738Z,6.35
2023-01-09T18:58:07.586Z,6.37
2023-01-09T19:02:20.446Z,6.37
2023-01-09T19:06:23.653Z,6.36
2023-01-09T19:10:26.582Z,6.37
2023-01-09T19:14:29.792Z,6.35
2023-01-09T19:18:39.263Z,6.36
2023-01-09T19:22:41.960Z,6.37
2023-01-09T19:26:46.422Z,6.43
2023-01-09T19:30:55.580Z,6.49
2023-01-09T19:34:59.976Z,6.53
2023-01-09T19:39:04.722Z,6.55
2023-01-09T19:43:07.743Z,6.57
2023-01-09T19:47:11.932Z,6.60
2023-01-09T19:51:18.771Z,6.62
2023-01-09T19:55:22.183Z,6.59
2023-01-09T19:59:25.025Z,6.62
2023-01-09T20:03:28.377Z,6.58
2023-01-09T20:07:32.610Z,6.55
2023-01-09T20:11:35.531Z,6.57
2023-01-09T20:15:40.564Z,6.57
2023-01-09T20:19:45.463Z,6.61
2023-01-09T20:23:50.939Z,6.63
2023-01-09T20:27:53.879Z,6.66
2023-01-09T20:31:56.961Z,6.69
2023-01-09T20:36:01.613Z,6.69
2023-01-09T20:40:06.912Z,6.72
2023-01-09T20:44:14.236Z,6.75
2023-01-09T20:48:17.175Z,6.73
2023-01-09T20:52:22.538Z,6.74
2023-01-09T20:56:28.755Z,6.72
2023-01-09T21:00:32.409Z,6.72
2023-01-09T21:04:35.356Z,6.67
2023-01-09T21:08:38.616Z,6.57
2023-01-09T21:12:44.462Z,6.50
2023-01-09T21:16:54.684Z,6.46
2023-01-09T21:20:58.355Z,6.39
2023-01-09T21:25:01.625Z,6.34
2023-01-09T21:29:08.212Z,6.38
2023-01-09T21:33:12.378Z,6.35
2023-01-09T21:37:16.692Z,6.35
2023-01-09T21:41:39.599Z,6.36
2023-01-09T21:46:01.318Z,6.36
2023-01-09T21:50:04.838Z,6.37
2023-01-09T21:54:08.053Z,6.36
2023-01-09T21:58:11.518Z,6.37
2023-01-09T22:02:16.778Z,6.41
2023-01-09T22:06:19.869Z,6.43
2023-01-09T22:10:22.921Z,6.47
2023-01-09T22:14:25.792Z,6.51
2023-01-09T22:18:30.296Z,6.55
2023-01-09T22:22:32.996Z,6.55
2023-01-09T22:26:36.217Z,6.56
2023-01-09T22:30:41.261Z,6.53
2023-01-09T22:34:47.245Z,6.55
2023-01-09T22:38:52.163Z,6.53
2023-01-09T22:42:55.761Z,6.49
2023-01-09T22:47:00.298Z,6.46
2023-01-09T22:51:06.476Z,6.41
2023-01-09T22:55:11.355Z,6.48
2023-01-09T22:59:15.691Z,6.46
2023-01-09T23:03:18.726Z,6.42
2023-01-09T23:07:23.459Z,6.43
2023-01-09T23:11:46.713Z,6.47
2023-01-09T23:15:49.886Z,6.44
2023-01-09T23:19:53.656Z,6.42
2023-01-09T23:23:59.974Z,6.39
2023-01-09T23:28:02.868Z,6.35
2023-01-09T23:32:06.435Z,6.31
2023-01-09T23:36:10.343Z,6.25
2023-01-09T23:40:14.671Z,6.15
2023-01-09T23:44:19.645Z,6.10
2023-01-09T23:48:25.463Z,6.06
2023-01-09T23:52:31.320Z,5.97
2023-01-09T23:56:36.065Z,5.93
